createdAt,value
2018-05-31T00:01:38.776Z,18.09
2018-05-31T00:04:06.462Z,18.13
2018-05-31T00:06:34.147Z,18.14
2018-05-31T00:09:01.869Z,18.17
2018-05-31T00:14:20.208Z,18.09
2018-05-31T00:16:47.825Z,17.99
2018-05-31T00:19:15.475Z,17.86
2018-05-31T00:21:43.188Z,17.78
2018-05-31T00:24:11.126Z,17.77
2018-05-31T00:26:39.590Z,17.79
2018-05-31T00:29:07.213Z,17.72
2018-05-31T00:31:34.835Z,17.78
2018-05-31T00:34:02.480Z,17.79
2018-05-31T00:36:30.436Z,17.77
2018-05-31T00:38:58.093Z,17.77
2018-05-31T00:41:25.727Z,17.73
2018-05-31T00:43:53.347Z,17.72
2018-05-31T00:46:21.076Z,17.72
2018-05-31T00:48:48.727Z,17.68
2018-05-31T00:51:16.738Z,17.73
2018-05-31T00:53:44.286Z,17.70
2018-05-31T00:56:18.775Z,17.65
2018-05-31T00:58:46.297Z,17.62
2018-05-31T01:01:13.864Z,17.50
2018-05-31T01:03:41.428Z,17.42
2018-05-31T01:06:08.961Z,17.42
2018-05-31T01:08:36.513Z,17.42
2018-05-31T01:11:04.131Z,17.38
2018-05-31T01:13:31.757Z,17.41
2018-05-31T01:15:59.291Z,17.43
2018-05-31T01:18:27.027Z,17.38
2018-05-31T01:20:54.568Z,17.34
2018-05-31T01:23:23.196Z,17.30
2018-05-31T01:25:50.860Z,17.27
2018-05-31T01:28:18.483Z,17.28
2018-05-31T01:30:46.289Z,17.19
2018-05-31T01:33:15.230Z,17.19
2018-05-31T01:35:42.789Z,17.20
2018-05-31T01:38:22.100Z,17.19
2018-05-31T01:40:49.639Z,17.15
2018-05-31T01:43:17.168Z,17.13
2018-05-31T01:45:44.914Z,17.15
2018-05-31T01:48:12.619Z,17.13
2018-05-31T01:50:40.281Z,17.16
2018-05-31T01:53:08.021Z,17.08
2018-05-31T01:55:35.689Z,17.08
2018-05-31T01:58:03.317Z,17.08
2018-05-31T02:03:22.325Z,17.03
2018-05-31T02:05:49.975Z,17.02
2018-05-31T02:08:17.798Z,17.06
2018-05-31T02:13:36.447Z,17.10
2018-05-31T02:16:04.087Z,17.01
2018-05-31T02:18:31.658Z,16.93
2018-05-31T02:20:59.197Z,16.86
2018-05-31T02:23:26.813Z,16.81
2018-05-31T02:25:54.451Z,16.74
2018-05-31T02:28:22.242Z,16.76
2018-05-31T02:30:49.801Z,16.74
2018-05-31T02:33:17.359Z,16.72
2018-05-31T02:35:45.104Z,16.75
2018-05-31T02:38:12.760Z,16.78
2018-05-31T02:41:01.141Z,16.84
2018-05-31T02:43:28.690Z,16.77
2018-05-31T02:45:56.211Z,16.73
2018-05-31T02:48:23.872Z,16.74
2018-05-31T02:50:51.461Z,16.75
2018-05-31T02:53:18.997Z,16.60
2018-05-31T02:55:46.516Z,16.47
2018-05-31T02:58:14.065Z,16.51
2018-05-31T03:00:41.593Z,16.54
2018-05-31T03:03:09.149Z,16.60
2018-05-31T03:05:36.748Z,16.64
2018-05-31T03:08:04.336Z,16.55
2018-05-31T03:10:31.894Z,16.54
2018-05-31T03:12:59.492Z,16.54
2018-05-31T03:15:27.094Z,16.57
2018-05-31T03:17:54.690Z,16.58
2018-05-31T03:20:22.251Z,16.57
2018-05-31T03:22:49.781Z,16.59
2018-05-31T03:25:17.630Z,16.55
2018-05-31T03:27:45.188Z,16.54
2018-05-31T03:30:12.820Z,16.57
2018-05-31T03:35:14.378Z,16.56
2018-05-31T03:37:42.039Z,16.60
2018-05-31T03:40:10.593Z,16.64
2018-05-31T03:42:38.283Z,16.61
2018-05-31T03:45:14.155Z,16.60
2018-05-31T03:47:41.844Z,16.42
2018-05-31T03:52:41.121Z,16.23
2018-05-31T03:55:08.674Z,16.27
2018-05-31T03:57:36.288Z,16.38
2018-05-31T04:00:03.970Z,16.39
2018-05-31T04:02:31.671Z,16.44
2018-05-31T04:04:59.260Z,16.45
2018-05-31T04:07:26.911Z,16.50
2018-05-31T04:09:54.527Z,16.57
2018-05-31T04:12:22.160Z,16.63
2018-05-31T04:14:49.705Z,16.70
2018-05-31T04:17:17.298Z,16.79
2018-05-31T04:19:44.825Z,16.83
2018-05-31T04:22:12.331Z,16.89
2018-05-31T04:24:39.849Z,16.84
2018-05-31T04:27:07.377Z,16.84
2018-05-31T04:29:34.943Z,16.90
2018-05-31T04:32:02.473Z,16.96
2018-05-31T04:34:29.969Z,17.00
2018-05-31T04:36:57.548Z,16.97
2018-05-31T04:39:25.193Z,17.07
2018-05-31T04:41:52.662Z,17.14
2018-05-31T04:44:20.176Z,17.19
2018-05-31T04:46:47.679Z,17.30
2018-05-31T04:49:15.195Z,17.39
2018-05-31T04:51:42.737Z,17.45
2018-05-31T04:54:10.361Z,17.54
2018-05-31T04:56:37.877Z,17.61
2018-05-31T04:59:05.490Z,17.64
2018-05-31T05:01:33.049Z,17.68
2018-05-31T05:04:00.769Z,17.79
2018-05-31T05:06:28.302Z,17.87
2018-05-31T05:08:55.851Z,17.96
2018-05-31T05:11:23.416Z,18.05
2018-05-31T05:13:51.016Z,18.16
2018-05-31T05:16:18.553Z,18.26
2018-05-31T05:18:46.191Z,18.31
2018-05-31T05:21:13.929Z,18.35
2018-05-31T05:23:41.686Z,18.32
2018-05-31T05:26:09.271Z,18.45
2018-05-31T05:28:36.892Z,18.56
2018-05-31T05:31:04.472Z,18.66
2018-05-31T05:33:32.024Z,18.74
2018-05-31T05:36:01.334Z,18.84
2018-05-31T05:38:28.869Z,18.95
2018-05-31T05:40:56.429Z,19.04
2018-05-31T05:43:24.536Z,19.15
2018-05-31T05:45:52.179Z,19.25
2018-05-31T05:48:19.859Z,19.34
2018-05-31T05:50:47.569Z,19.40
2018-05-31T05:53:15.198Z,19.44
2018-05-31T05:55:42.806Z,19.54
2018-05-31T05:58:10.373Z,19.68
2018-05-31T06:00:37.921Z,19.62
2018-05-31T06:03:05.503Z,19.53
2018-05-31T06:05:33.139Z,19.74
2018-05-31T06:08:00.740Z,19.87
2018-05-31T06:10:28.366Z,20.06
2018-05-31T06:12:56.018Z,19.97
2018-05-31T06:15:23.568Z,20.07
2018-05-31T06:17:51.245Z,20.19
2018-05-31T06:20:18.866Z,20.29
2018-05-31T06:22:46.657Z,20.20
2018-05-31T06:25:15.298Z,20.44
2018-05-31T06:27:42.921Z,20.42
2018-05-31T06:30:13.508Z,20.67
2018-05-31T06:32:41.238Z,20.80
2018-05-31T06:35:08.940Z,21.01
2018-05-31T06:37:36.736Z,21.19
2018-05-31T06:40:04.351Z,21.36
2018-05-31T06:42:32.073Z,21.19
2018-05-31T06:44:59.732Z,21.29
2018-05-31T06:47:27.402Z,21.28
2018-05-31T06:49:55.171Z,21.56
2018-05-31T06:52:22.824Z,21.69
2018-05-31T06:54:51.575Z,21.83
2018-05-31T06:57:19.377Z,22.12
2018-05-31T06:59:47.075Z,22.32
2018-05-31T07:02:15.261Z,22.32
2018-05-31T07:04:43.730Z,22.53
2018-05-31T07:07:11.927Z,22.22
2018-05-31T07:09:39.849Z,22.29
2018-05-31T07:12:07.539Z,22.46
2018-05-31T07:14:35.216Z,22.72
2018-05-31T07:17:02.824Z,22.51
2018-05-31T07:19:30.551Z,22.80
2018-05-31T07:21:58.200Z,22.84
2018-05-31T07:24:25.822Z,22.91
2018-05-31T07:26:53.427Z,23.23
2018-05-31T07:29:21.031Z,23.51
2018-05-31T07:31:48.682Z,23.70
2018-05-31T07:36:52.118Z,24.04
2018-05-31T07:39:19.914Z,24.20
2018-05-31T07:41:48.196Z,24.24
2018-05-31T07:44:15.906Z,24.40
2018-05-31T07:46:43.586Z,24.52
2018-05-31T07:49:12.946Z,24.53
2018-05-31T07:51:41.955Z,24.65
2018-05-31T07:54:09.590Z,24.74
2018-05-31T07:56:38.038Z,24.86
2018-05-31T07:59:05.886Z,24.98
2018-05-31T08:01:33.652Z,24.98
2018-05-31T08:04:02.485Z,25.17
2018-05-31T08:06:30.211Z,25.30
2018-05-31T08:08:58.591Z,25.42
2018-05-31T08:11:26.261Z,25.48
2018-05-31T08:13:53.934Z,25.55
2018-05-31T08:16:21.615Z,25.62
2018-05-31T08:18:49.215Z,25.73
2018-05-31T08:21:17.977Z,25.85
2018-05-31T08:23:47.646Z,25.73
2018-05-31T08:26:16.226Z,25.73
2018-05-31T08:28:44.015Z,25.73
2018-05-31T08:31:13.857Z,25.83
2018-05-31T08:33:42.925Z,25.64
2018-05-31T08:36:11.017Z,25.40
2018-05-31T08:38:39.589Z,24.81
2018-05-31T08:41:11.294Z,24.96
2018-05-31T08:43:41.964Z,25.48
2018-05-31T08:46:09.641Z,25.86
2018-05-31T08:48:38.400Z,25.94
2018-05-31T08:51:10.487Z,26.13
2018-05-31T08:53:43.150Z,26.35
2018-05-31T08:56:11.117Z,26.61
2018-05-31T08:58:40.876Z,26.73
2018-05-31T09:01:19.267Z,26.92
2018-05-31T09:03:57.162Z,27.01
2018-05-31T09:06:46.619Z,27.02
2018-05-31T09:12:02.008Z,27.21
2018-05-31T09:17:35.217Z,27.36
2018-05-31T09:20:15.876Z,27.27
2018-05-31T09:22:50.000Z,27.34
2018-05-31T09:25:19.448Z,27.43
2018-05-31T09:27:52.897Z,27.60
2018-05-31T09:30:28.076Z,27.77
2018-05-31T09:33:06.516Z,27.80
2018-05-31T09:35:39.674Z,27.86
2018-05-31T09:38:11.277Z,27.69
2018-05-31T09:40:49.458Z,27.67
2018-05-31T09:43:22.219Z,27.77
2018-05-31T09:45:55.724Z,27.42
2018-05-31T09:48:30.210Z,27.82
2018-05-31T09:51:03.506Z,27.98
2018-05-31T09:53:35.330Z,28.12
2018-05-31T09:56:03.693Z,28.26
2018-05-31T09:58:39.404Z,27.65
2018-05-31T10:01:15.981Z,27.59
2018-05-31T10:03:52.703Z,27.28
2018-05-31T10:06:23.456Z,27.68
2018-05-31T10:08:59.926Z,28.12
2018-05-31T10:11:37.484Z,28.38
2018-05-31T10:14:13.496Z,28.33
2018-05-31T10:16:53.243Z,27.76
2018-05-31T10:22:07.953Z,28.53
2018-05-31T10:24:43.749Z,28.65
2018-05-31T10:27:25.231Z,28.49
2018-05-31T10:29:57.074Z,28.26
2018-05-31T10:32:30.278Z,28.33
2018-05-31T10:35:09.107Z,28.60
2018-05-31T10:37:46.140Z,28.97
2018-05-31T10:40:23.136Z,28.57
2018-05-31T10:42:55.734Z,28.83
2018-05-31T10:45:41.472Z,28.30
2018-05-31T10:48:14.903Z,28.02
2018-05-31T10:50:47.568Z,27.33
2018-05-31T10:53:21.987Z,28.08
2018-05-31T10:55:58.755Z,28.73
2018-05-31T10:58:27.990Z,28.24
2018-05-31T11:01:10.263Z,28.39
2018-05-31T11:03:49.981Z,29.03
2018-05-31T11:06:25.749Z,29.00
2018-05-31T11:14:43.856Z,29.53
2018-05-31T11:17:23.746Z,29.65
2018-05-31T11:20:04.138Z,29.77
2018-05-31T11:26:12.719Z,30.12
2018-05-31T11:34:54.287Z,30.87
2018-05-31T11:38:10.219Z,30.93
2018-05-31T11:46:55.201Z,31.15
2018-05-31T11:55:20.139Z,31.31
2018-05-31T12:22:48.586Z,30.79
2018-05-31T12:30:58.807Z,31.32
2018-05-31T12:33:31.697Z,31.56
2018-05-31T12:36:30.112Z,31.42
2018-05-31T12:39:16.674Z,31.66
2018-05-31T12:48:52.392Z,32.06
2018-05-31T12:51:30.250Z,32.16
2018-05-31T12:56:53.630Z,32.47
2018-05-31T13:02:13.264Z,32.41
2018-05-31T13:04:45.936Z,32.24
2018-05-31T13:07:37.971Z,32.04
2018-05-31T13:10:14.399Z,32.10
2018-05-31T13:12:43.983Z,31.35
2018-05-31T13:15:14.647Z,31.32
2018-05-31T13:20:39.688Z,31.86
2018-05-31T13:23:15.356Z,31.93
2018-05-31T13:31:28.208Z,32.48
2018-05-31T13:34:04.635Z,32.70
2018-05-31T13:36:45.722Z,32.81
2018-05-31T13:42:56.722Z,32.61
2018-05-31T13:57:40.217Z,33.00
2018-05-31T14:17:39.316Z,31.75
2018-05-31T14:20:15.897Z,31.96
2018-05-31T14:22:47.708Z,32.09
2018-05-31T14:28:34.315Z,32.30
2018-05-31T14:31:38.744Z,32.50
2018-05-31T14:34:06.409Z,32.56
2018-05-31T14:36:38.227Z,32.49
2018-05-31T14:39:11.507Z,32.56
2018-05-31T14:41:53.942Z,32.30
2018-05-31T14:44:29.126Z,32.35
2018-05-31T14:46:57.008Z,32.53
2018-05-31T14:49:28.024Z,32.74
2018-05-31T14:51:58.068Z,32.91
2018-05-31T14:57:00.408Z,32.87
2018-05-31T14:59:29.867Z,32.86
2018-05-31T15:02:00.910Z,32.70
2018-05-31T15:04:33.696Z,32.55
2018-05-31T15:07:08.798Z,32.56
2018-05-31T15:09:41.001Z,32.59
2018-05-31T15:15:56.492Z,32.45
2018-05-31T15:18:38.322Z,32.42
2018-05-31T15:21:07.211Z,32.31
2018-05-31T15:23:41.459Z,32.27
2018-05-31T15:29:04.732Z,31.95
2018-05-31T15:31:32.728Z,31.69
2018-05-31T15:34:24.481Z,31.59
2018-05-31T15:36:55.852Z,31.42
2018-05-31T15:39:24.913Z,31.30
2018-05-31T15:42:04.620Z,30.99
2018-05-31T15:44:43.761Z,30.91
2018-05-31T15:47:17.404Z,30.71
2018-05-31T15:49:46.799Z,30.49
2018-05-31T15:52:25.095Z,30.45
2018-05-31T15:54:58.118Z,30.36
2018-05-31T15:57:25.885Z,30.20
2018-05-31T15:59:55.891Z,30.20
2018-05-31T16:02:24.406Z,30.09
2018-05-31T16:04:53.640Z,30.09
2018-05-31T16:07:21.588Z,29.97
2018-05-31T16:09:49.917Z,29.86
2018-05-31T16:12:18.659Z,29.80
2018-05-31T16:14:46.356Z,29.74
2018-05-31T16:17:16.273Z,29.70
2018-05-31T16:19:45.892Z,29.73
2018-05-31T16:22:13.579Z,29.63
2018-05-31T16:24:41.265Z,29.45
2018-05-31T16:27:12.542Z,29.52
2018-05-31T16:29:40.712Z,29.50
2018-05-31T16:32:10.031Z,29.49
2018-05-31T16:34:37.992Z,29.43
2018-05-31T16:37:08.948Z,29.39
2018-05-31T16:39:41.490Z,29.33
2018-05-31T16:42:09.976Z,29.30
2018-05-31T16:44:40.220Z,29.30
2018-05-31T16:47:10.288Z,29.25
2018-05-31T16:49:39.083Z,29.14
2018-05-31T16:52:12.075Z,29.01
2018-05-31T16:54:40.817Z,29.01
2018-05-31T16:57:14.369Z,28.94
2018-05-31T16:59:43.176Z,28.86
2018-05-31T17:02:14.060Z,28.73
2018-05-31T17:04:42.822Z,28.68
2018-05-31T17:07:15.404Z,28.61
2018-05-31T17:09:45.100Z,28.50
2018-05-31T17:12:12.951Z,28.54
2018-05-31T17:14:42.580Z,28.47
2018-05-31T17:17:12.589Z,28.37
2018-05-31T17:19:44.708Z,28.36
2018-05-31T17:22:15.667Z,28.37
2018-05-31T17:24:45.280Z,28.43
2018-05-31T17:27:14.018Z,28.34
2018-05-31T17:29:43.220Z,28.23
2018-05-31T17:32:11.986Z,28.12
2018-05-31T17:34:40.770Z,27.97
2018-05-31T17:37:12.171Z,27.78
2018-05-31T17:39:42.120Z,27.76
2018-05-31T17:42:10.734Z,27.74
2018-05-31T17:44:40.231Z,27.68
2018-05-31T17:47:08.888Z,27.61
2018-05-31T17:49:39.014Z,27.46
2018-05-31T17:52:07.447Z,27.33
2018-05-31T17:54:36.047Z,27.30
2018-05-31T17:57:03.756Z,27.28
2018-05-31T17:59:32.314Z,27.20
2018-05-31T18:02:00.067Z,27.09
2018-05-31T18:04:27.891Z,27.04
2018-05-31T18:06:55.812Z,26.97
2018-05-31T18:09:23.529Z,26.82
2018-05-31T18:11:52.092Z,26.73
2018-05-31T18:14:19.832Z,26.74
2018-05-31T18:16:47.700Z,26.64
2018-05-31T18:19:15.439Z,26.59
2018-05-31T18:21:44.534Z,26.57
2018-05-31T18:24:14.801Z,26.61
2018-05-31T18:26:42.906Z,26.54
2018-05-31T18:29:11.701Z,26.50
2018-05-31T18:31:39.741Z,26.44
2018-05-31T18:34:08.446Z,26.43
2018-05-31T18:36:38.596Z,26.38
2018-05-31T18:39:07.116Z,26.32
2018-05-31T18:41:37.459Z,26.29
2018-05-31T18:44:05.267Z,26.23
2018-05-31T18:46:33.066Z,26.07
2018-05-31T18:49:02.365Z,26.18
2018-05-31T18:51:30.276Z,26.18
2018-05-31T18:53:58.247Z,26.18
2018-05-31T18:56:26.093Z,26.13
2018-05-31T18:58:54.863Z,26.12
2018-05-31T19:01:23.473Z,26.09
2018-05-31T19:03:51.210Z,26.03
2018-05-31T19:06:20.083Z,25.93
2018-05-31T19:08:47.823Z,25.82
2018-05-31T19:11:18.521Z,25.66
2018-05-31T19:13:53.453Z,25.56
2018-05-31T19:16:22.894Z,25.37
2018-05-31T19:18:57.754Z,25.24
2018-05-31T19:21:28.362Z,25.11
2018-05-31T19:23:56.256Z,25.02
2018-05-31T19:26:23.989Z,24.91
2018-05-31T19:28:52.565Z,24.89
2018-05-31T19:31:20.214Z,24.90
2018-05-31T19:33:49.333Z,24.80
2018-05-31T19:36:22.458Z,24.50
2018-05-31T19:38:50.056Z,24.40
2018-05-31T19:41:19.242Z,24.31
2018-05-31T19:43:53.174Z,24.36
2018-05-31T19:46:21.725Z,24.47
2018-05-31T19:48:49.462Z,24.50
2018-05-31T19:51:22.739Z,24.46
2018-05-31T19:53:50.510Z,24.45
2018-05-31T19:56:18.822Z,24.35
2018-05-31T19:58:51.917Z,23.93
2018-05-31T20:01:25.281Z,24.02
2018-05-31T20:03:53.125Z,24.15
2018-05-31T20:06:21.740Z,24.23
2018-05-31T20:08:49.468Z,24.18
2018-05-31T20:11:17.099Z,24.11
2018-05-31T20:13:45.555Z,24.14
2018-05-31T20:16:13.154Z,24.11
2018-05-31T20:18:45.490Z,23.97
2018-05-31T20:21:15.865Z,23.90
2018-05-31T20:23:43.548Z,23.85
2018-05-31T20:26:11.240Z,23.84
2018-05-31T20:28:40.430Z,23.88
2018-05-31T20:31:08.255Z,23.80
2018-05-31T20:33:36.967Z,23.78
2018-05-31T20:36:04.713Z,23.77
2018-05-31T20:38:33.973Z,23.75
2018-05-31T20:41:01.691Z,23.67
2018-05-31T20:43:30.265Z,23.68
2018-05-31T20:45:57.958Z,23.70
2018-05-31T20:48:26.111Z,23.64
2018-05-31T20:50:53.827Z,23.57
2018-05-31T20:53:22.440Z,23.57
2018-05-31T20:55:50.168Z,23.55
2018-05-31T20:58:17.871Z,23.54
2018-05-31T21:00:45.569Z,23.60
2018-05-31T21:03:13.511Z,23.60
2018-05-31T21:05:41.191Z,23.59
2018-05-31T21:08:08.907Z,23.61
2018-05-31T21:10:36.622Z,23.60
2018-05-31T21:13:05.096Z,23.53
2018-05-31T21:15:32.820Z,23.56
2018-05-31T21:18:00.550Z,23.57
2018-05-31T21:20:28.276Z,23.63
2018-05-31T21:22:56.637Z,23.64
2018-05-31T21:25:26.034Z,23.65
2018-05-31T21:27:53.700Z,23.57
2018-05-31T21:30:21.367Z,23.52
2018-05-31T21:32:49.071Z,23.43
2018-05-31T21:35:17.092Z,23.41
2018-05-31T21:37:44.820Z,23.37
2018-05-31T21:40:12.491Z,23.37
2018-05-31T21:42:40.271Z,23.34
2018-05-31T21:45:08.098Z,23.30
2018-05-31T21:47:35.757Z,23.21
2018-05-31T21:50:03.454Z,23.18
2018-05-31T21:52:32.228Z,23.18
2018-05-31T21:54:59.919Z,23.15
2018-05-31T21:57:28.524Z,23.11
2018-05-31T21:59:56.064Z,23.04
2018-05-31T22:02:23.617Z,22.97
2018-05-31T22:04:51.248Z,22.92
2018-05-31T22:07:19.287Z,22.86
2018-05-31T22:09:47.029Z,22.88
2018-05-31T22:12:15.489Z,22.85
2018-05-31T22:14:43.131Z,22.79
2018-05-31T22:17:11.610Z,22.76
2018-05-31T22:19:40.997Z,22.75
2018-05-31T22:22:08.580Z,22.74
2018-05-31T22:24:37.420Z,22.72
2018-05-31T22:27:05.226Z,22.69
2018-05-31T22:29:34.460Z,22.65
2018-05-31T22:32:02.138Z,22.61
2018-05-31T22:34:29.785Z,22.57
2018-05-31T22:36:57.445Z,22.44
2018-05-31T22:39:25.089Z,22.30
2018-05-31T22:41:52.798Z,22.32
2018-05-31T22:44:20.509Z,22.28
2018-05-31T22:46:48.158Z,22.25
2018-05-31T22:49:16.033Z,22.20
2018-05-31T22:51:45.388Z,22.12
2018-05-31T22:54:13.126Z,22.11
2018-05-31T22:59:33.213Z,22.02
2018-05-31T23:02:01.010Z,21.96
2018-05-31T23:04:28.952Z,21.98
2018-05-31T23:06:56.849Z,21.98
2018-05-31T23:09:25.671Z,21.94
2018-05-31T23:11:53.368Z,21.92
2018-05-31T23:14:24.008Z,21.94
2018-05-31T23:16:51.727Z,21.94
2018-05-31T23:19:19.400Z,21.92
2018-05-31T23:21:47.041Z,21.89
2018-05-31T23:24:16.197Z,21.86
2018-05-31T23:26:43.855Z,21.84
2018-05-31T23:29:14.744Z,21.79
2018-05-31T23:31:43.807Z,21.75
2018-05-31T23:34:11.478Z,21.74
2018-05-31T23:36:39.159Z,21.68
2018-05-31T23:39:07.780Z,21.65
2018-05-31T23:41:46.183Z,21.62
2018-05-31T23:44:15.481Z,21.56
2018-05-31T23:46:43.832Z,21.40
2018-05-31T23:49:11.911Z,21.14
2018-05-31T23:51:41.399Z,21.16
2018-05-31T23:54:09.991Z,21.21
2018-05-31T23:56:37.729Z,21.24
2018-05-31T23:59:06.772Z,21.28
